createdAt,value
2019-05-01T00:02:15.058Z,10.60
2019-05-01T00:04:53.144Z,10.50
2019-05-01T00:07:39.329Z,10.50
2019-05-01T00:10:13.566Z,10.40
2019-05-01T00:12:47.515Z,10.40
2019-05-01T00:15:32.205Z,10.30
2019-05-01T00:18:06.043Z,10.20
2019-05-01T00:20:39.672Z,10.20
2019-05-01T00:23:28.611Z,10.10
2019-05-01T00:26:02.313Z,10.10
2019-05-01T00:28:35.967Z,10.00
2019-05-01T00:31:34.307Z,10.00
2019-05-01T00:36:40.659Z,9.90
2019-05-01T00:39:15.978Z,9.90
2019-05-01T00:41:49.609Z,9.80
2019-05-01T00:44:23.196Z,9.80
2019-05-01T00:46:59.811Z,9.80
2019-05-01T00:49:33.398Z,9.80
2019-05-01T00:52:07.087Z,9.80
2019-05-01T00:54:42.392Z,9.70
2019-05-01T00:57:23.943Z,9.70
2019-05-01T01:03:35.850Z,9.70
2019-05-01T01:06:10.226Z,9.80
2019-05-01T01:08:43.922Z,9.80
2019-05-01T01:11:17.561Z,9.80
2019-05-01T01:14:12.180Z,9.80
2019-05-01T01:16:45.939Z,9.70
2019-05-01T01:19:35.380Z,9.70
2019-05-01T01:22:09.060Z,9.70
2019-05-01T01:24:43.124Z,9.70
2019-05-01T01:27:39.861Z,9.70
2019-05-01T01:30:13.623Z,9.80
2019-05-01T01:32:47.395Z,9.80
2019-05-01T01:35:48.799Z,9.80
2019-05-01T01:38:22.560Z,9.80
2019-05-01T01:40:56.244Z,9.80
2019-05-01T01:43:47.833Z,9.90
2019-05-01T01:46:38.858Z,9.90
2019-05-01T01:49:12.570Z,9.90
2019-05-01T01:51:46.331Z,9.90
2019-05-01T01:54:20.188Z,9.90
2019-05-01T01:56:53.955Z,9.90
2019-05-01T01:59:31.033Z,9.90
2019-05-01T02:02:19.101Z,9.80
2019-05-01T02:04:57.145Z,9.80
2019-05-01T02:07:30.979Z,9.80
2019-05-01T02:10:06.332Z,9.80
2019-05-01T02:12:41.275Z,9.80
2019-05-01T02:15:15.321Z,9.80
2019-05-01T02:17:57.469Z,9.80
2019-05-01T02:20:31.197Z,9.80
2019-05-01T02:23:04.912Z,9.80
2019-05-01T02:25:40.315Z,9.70
2019-05-01T02:28:47.866Z,9.70
2019-05-01T02:31:28.603Z,9.70
2019-05-01T02:34:03.454Z,9.70
2019-05-01T02:36:41.458Z,9.60
2019-05-01T02:39:16.655Z,9.60
2019-05-01T02:41:52.997Z,9.60
2019-05-01T02:44:35.624Z,9.60
2019-05-01T02:47:12.292Z,9.50
2019-05-01T02:49:51.816Z,9.50
2019-05-01T02:52:28.586Z,9.60
2019-05-01T02:55:06.383Z,9.50
2019-05-01T02:57:42.216Z,9.50
2019-05-01T03:00:16.071Z,9.50
2019-05-01T03:02:50.199Z,9.40
2019-05-01T03:05:24.284Z,9.40
2019-05-01T03:08:01.070Z,9.40
2019-05-01T03:10:35.326Z,9.50
2019-05-01T03:13:09.502Z,9.50
2019-05-01T03:15:44.603Z,9.50
2019-05-01T03:18:22.527Z,9.40
2019-05-01T03:21:00.606Z,9.40
2019-05-01T03:23:36.099Z,9.40
2019-05-01T03:26:10.224Z,9.40
2019-05-01T03:28:44.004Z,9.40
2019-05-01T03:31:18.064Z,9.40
2019-05-01T03:34:10.485Z,9.40
2019-05-01T03:36:44.842Z,9.40
2019-05-01T03:39:18.565Z,9.40
2019-05-01T03:41:53.207Z,9.40
2019-05-01T03:44:27.035Z,9.40
2019-05-01T03:47:01.011Z,9.40
2019-05-01T03:49:34.843Z,9.30
2019-05-01T03:52:11.639Z,9.30
2019-05-01T03:54:45.427Z,9.40
2019-05-01T03:57:19.450Z,9.30
2019-05-01T03:59:53.208Z,9.30
2019-05-01T04:02:34.841Z,9.30
2019-05-01T04:05:17.352Z,9.20
2019-05-01T04:07:51.411Z,9.10
2019-05-01T04:10:27.029Z,9.10
2019-05-01T04:13:03.874Z,9.10
2019-05-01T04:15:37.668Z,9.10
2019-05-01T04:18:17.288Z,9.10
2019-05-01T04:20:51.191Z,9.20
2019-05-01T04:23:25.075Z,9.10
2019-05-01T04:26:03.547Z,9.10
2019-05-01T04:28:42.347Z,9.10
2019-05-01T04:31:21.171Z,9.10
2019-05-01T04:33:56.596Z,9.10
2019-05-01T04:36:32.258Z,9.00
2019-05-01T04:39:08.105Z,9.00
2019-05-01T04:41:47.802Z,9.00
2019-05-01T04:44:21.694Z,9.00
2019-05-01T04:47:10.812Z,9.00
2019-05-01T04:49:44.476Z,9.10
2019-05-01T04:52:18.362Z,9.10
2019-05-01T04:54:52.332Z,9.10
2019-05-01T04:57:26.449Z,9.10
2019-05-01T05:00:00.898Z,9.20
2019-05-01T05:02:37.310Z,9.10
2019-05-01T05:05:11.503Z,9.10
2019-05-01T05:11:21.492Z,9.20
2019-05-01T05:14:27.661Z,9.30
2019-05-01T05:17:03.086Z,9.30
2019-05-01T05:19:50.861Z,9.30
2019-05-01T05:22:25.022Z,9.40
2019-05-01T05:25:00.825Z,9.40
2019-05-01T05:27:35.235Z,9.50
2019-05-01T05:30:09.248Z,9.60
2019-05-01T05:32:55.162Z,9.60
2019-05-01T05:35:31.225Z,9.60
2019-05-01T05:38:27.689Z,9.60
2019-05-01T05:41:03.099Z,9.70
2019-05-01T05:43:37.232Z,9.80
2019-05-01T05:46:42.692Z,9.80
2019-05-01T05:49:16.448Z,9.80
2019-05-01T05:51:53.237Z,9.90
2019-05-01T05:54:31.846Z,9.90
2019-05-01T05:57:09.339Z,9.90
2019-05-01T06:00:37.272Z,9.90
2019-05-01T06:03:46.581Z,9.80
2019-05-01T06:06:27.912Z,9.90
2019-05-01T06:09:09.085Z,9.90
2019-05-01T06:11:52.988Z,9.80
2019-05-01T06:14:47.490Z,9.80
2019-05-01T06:17:28.660Z,9.80
2019-05-01T06:20:02.834Z,9.90
2019-05-01T06:23:04.285Z,9.90
2019-05-01T06:25:41.805Z,9.90
2019-05-01T06:28:19.828Z,9.90
2019-05-01T06:31:23.209Z,10.10
2019-05-01T06:33:55.841Z,10.10
2019-05-01T06:36:34.892Z,10.20
2019-05-01T06:39:11.708Z,10.30
2019-05-01T06:41:45.137Z,10.10
2019-05-01T06:44:44.845Z,9.90
2019-05-01T06:47:23.535Z,9.90
2019-05-01T06:50:19.401Z,9.90
2019-05-01T06:52:53.398Z,9.90
2019-05-01T06:55:28.810Z,9.80
2019-05-01T06:58:03.126Z,9.80
2019-05-01T07:00:43.164Z,9.80
2019-05-01T07:03:17.344Z,9.90
2019-05-01T07:05:54.438Z,10.00
2019-05-01T07:08:35.740Z,10.10
2019-05-01T07:11:10.835Z,10.10
2019-05-01T07:13:55.840Z,10.10
2019-05-01T07:16:33.238Z,10.10
2019-05-01T07:19:07.033Z,10.20
2019-05-01T07:22:01.765Z,10.20
2019-05-01T07:24:34.732Z,10.20
2019-05-01T07:27:08.852Z,10.40
2019-05-01T07:29:44.896Z,10.50
2019-05-01T07:32:29.533Z,10.50
2019-05-01T07:35:03.968Z,10.50
2019-05-01T07:37:38.197Z,10.80
2019-05-01T07:40:12.266Z,10.90
2019-05-01T07:42:48.248Z,11.00
2019-05-01T07:45:44.811Z,10.90
2019-05-01T07:48:21.520Z,10.90
2019-05-01T07:50:55.301Z,11.10
2019-05-01T07:53:29.468Z,11.10
2019-05-01T07:56:05.434Z,11.00
2019-05-01T07:58:39.468Z,11.00
2019-05-01T08:01:33.855Z,10.90
2019-05-01T08:04:07.614Z,10.90
2019-05-01T08:06:52.130Z,10.90
2019-05-01T08:09:26.139Z,10.80
2019-05-01T08:11:59.820Z,10.90
2019-05-01T08:14:58.380Z,10.70
2019-05-01T08:17:33.707Z,10.60
2019-05-01T08:20:29.772Z,10.80
2019-05-01T08:23:03.478Z,10.90
2019-05-01T08:25:37.766Z,11.00
2019-05-01T08:28:31.943Z,11.00
2019-05-01T08:31:11.868Z,11.10
2019-05-01T08:34:03.267Z,11.30
2019-05-01T08:36:36.995Z,11.30
2019-05-01T08:39:13.888Z,11.30
2019-05-01T08:41:47.413Z,11.20
2019-05-01T08:44:24.807Z,11.20
2019-05-01T08:47:00.782Z,11.40
2019-05-01T08:49:54.198Z,11.60
2019-05-01T08:52:28.449Z,11.50
2019-05-01T08:55:04.302Z,11.50
2019-05-01T08:57:44.369Z,11.30
2019-05-01T09:00:18.830Z,11.30
2019-05-01T09:02:53.010Z,11.40
2019-05-01T09:05:35.780Z,11.50
2019-05-01T09:08:10.039Z,11.60
2019-05-01T09:10:44.313Z,11.60
2019-05-01T09:13:31.678Z,11.50
2019-05-01T09:16:06.038Z,11.70
2019-05-01T09:18:43.404Z,11.80
2019-05-01T09:21:17.634Z,11.60
2019-05-01T09:24:12.839Z,11.80
2019-05-01T09:27:02.850Z,11.90
2019-05-01T09:29:46.797Z,11.90
2019-05-01T09:32:21.952Z,11.90
2019-05-01T09:34:58.284Z,12.00
2019-05-01T09:37:32.514Z,12.20
2019-05-01T09:40:09.241Z,12.30
2019-05-01T09:42:44.101Z,11.90
2019-05-01T09:45:27.686Z,12.00
2019-05-01T09:48:02.279Z,11.90
2019-05-01T09:50:38.262Z,12.00
2019-05-01T09:53:14.135Z,12.10
2019-05-01T09:55:50.235Z,12.10
2019-05-01T09:58:25.923Z,12.10
2019-05-01T10:01:04.461Z,12.10
2019-05-01T10:03:38.682Z,12.00
2019-05-01T10:06:17.303Z,12.10
2019-05-01T10:08:51.723Z,12.10
2019-05-01T10:11:26.225Z,12.40
2019-05-01T10:14:00.478Z,12.70
2019-05-01T10:16:34.734Z,12.70
2019-05-01T10:19:08.979Z,12.60
2019-05-01T10:21:43.266Z,12.70
2019-05-01T10:24:17.610Z,12.70
2019-05-01T10:26:55.068Z,12.40
2019-05-01T10:29:49.205Z,12.40
2019-05-01T10:35:25.738Z,12.60
2019-05-01T10:38:00.013Z,12.80
2019-05-01T10:40:34.433Z,13.00
2019-05-01T10:43:11.793Z,12.90
2019-05-01T10:45:46.012Z,12.80
2019-05-01T10:48:20.314Z,13.00
2019-05-01T10:50:54.526Z,12.80
2019-05-01T10:53:28.810Z,12.70
2019-05-01T10:56:05.129Z,12.70
2019-05-01T10:58:39.371Z,12.60
2019-05-01T11:01:31.922Z,12.30
2019-05-01T11:04:07.922Z,12.20
2019-05-01T11:06:54.262Z,12.00
2019-05-01T11:09:28.794Z,12.10
2019-05-01T11:12:08.169Z,12.20
2019-05-01T11:14:42.523Z,12.50
2019-05-01T11:17:22.970Z,12.60
2019-05-01T11:19:57.315Z,12.70
2019-05-01T11:22:31.477Z,12.80
2019-05-01T11:25:07.086Z,12.80
2019-05-01T11:27:43.428Z,12.70
2019-05-01T11:30:17.920Z,12.60
2019-05-01T11:32:56.224Z,12.50
2019-05-01T11:35:48.922Z,12.50
2019-05-01T11:38:34.181Z,12.50
2019-05-01T11:41:10.020Z,12.50
2019-05-01T11:43:44.274Z,12.60
2019-05-01T11:46:20.147Z,12.60
2019-05-01T11:48:54.485Z,12.70
2019-05-01T11:51:28.728Z,12.70
2019-05-01T11:54:03.359Z,12.70
2019-05-01T11:56:37.502Z,12.50
2019-05-01T11:59:11.774Z,12.30
2019-05-01T12:01:46.032Z,12.30
2019-05-01T12:04:26.410Z,12.50
2019-05-01T12:07:00.707Z,12.60
2019-05-01T12:09:53.067Z,12.30
2019-05-01T12:12:29.051Z,12.20
2019-05-01T12:15:05.673Z,12.30
2019-05-01T12:17:59.844Z,12.30
2019-05-01T12:20:34.210Z,12.30
2019-05-01T12:23:08.419Z,12.30
2019-05-01T12:25:42.693Z,12.30
2019-05-01T12:28:16.984Z,12.40
2019-05-01T12:30:51.206Z,12.30
2019-05-01T12:33:25.416Z,12.30
2019-05-01T12:36:01.220Z,12.30
2019-05-01T12:38:35.507Z,12.20
2019-05-01T12:41:23.471Z,12.20
2019-05-01T12:43:57.674Z,12.30
2019-05-01T12:46:41.749Z,12.50
2019-05-01T12:49:17.971Z,12.60
2019-05-01T12:51:55.935Z,12.40
2019-05-01T12:54:40.669Z,12.30
2019-05-01T12:57:16.559Z,12.40
2019-05-01T12:59:50.750Z,12.70
2019-05-01T13:05:25.893Z,12.80
2019-05-01T13:08:00.128Z,12.70
2019-05-01T13:10:34.326Z,12.50
2019-05-01T13:13:14.602Z,12.50
2019-05-01T13:15:48.873Z,12.60
2019-05-01T13:18:23.193Z,12.40
2019-05-01T13:20:57.473Z,12.30
2019-05-01T13:23:31.164Z,12.20
2019-05-01T13:26:07.158Z,12.20
2019-05-01T13:28:42.417Z,12.00
2019-05-01T13:31:20.174Z,11.90
2019-05-01T13:33:54.090Z,11.90
2019-05-01T13:36:27.822Z,12.10
2019-05-01T13:39:02.428Z,12.10
2019-05-01T13:41:36.115Z,12.20
2019-05-01T13:44:09.886Z,12.20
2019-05-01T13:46:44.053Z,12.30
2019-05-01T13:49:22.227Z,12.30
2019-05-01T13:51:56.446Z,12.10
2019-05-01T13:54:30.694Z,12.20
2019-05-01T13:57:08.256Z,12.10
2019-05-01T13:59:42.495Z,12.10
2019-05-01T14:02:16.453Z,12.20
2019-05-01T14:04:51.064Z,12.10
2019-05-01T14:07:25.705Z,12.00
2019-05-01T14:09:59.923Z,11.90
2019-05-01T14:12:41.810Z,11.80
2019-05-01T14:15:15.473Z,11.80
2019-05-01T14:17:49.140Z,11.90
2019-05-01T14:20:39.669Z,11.90
2019-05-01T14:23:37.115Z,12.00
2019-05-01T14:26:10.793Z,12.00
2019-05-01T14:28:56.491Z,11.90
2019-05-01T14:31:30.982Z,11.90
2019-05-01T14:34:04.782Z,12.00
2019-05-01T14:36:38.453Z,12.00
2019-05-01T14:39:12.600Z,11.80
2019-05-01T14:41:46.847Z,11.80
2019-05-01T14:44:21.140Z,11.70
2019-05-01T14:46:54.819Z,11.70
2019-05-01T14:49:28.830Z,11.70
2019-05-01T14:52:02.505Z,11.70
2019-05-01T14:54:36.277Z,11.50
2019-05-01T14:57:10.741Z,11.40
2019-05-01T14:59:46.489Z,11.50
2019-05-01T15:02:36.715Z,11.30
2019-05-01T15:05:10.702Z,11.40
2019-05-01T15:07:44.346Z,11.30
2019-05-01T15:10:48.459Z,11.20
2019-05-01T15:13:40.481Z,11.30
2019-05-01T15:16:16.046Z,11.20
2019-05-01T15:19:12.703Z,11.10
2019-05-01T15:21:46.473Z,11.10
2019-05-01T15:24:20.611Z,11.20
2019-05-01T15:26:54.293Z,11.20
2019-05-01T15:32:03.611Z,11.20
2019-05-01T15:34:45.704Z,11.30
2019-05-01T15:37:19.319Z,11.30
2019-05-01T15:39:58.799Z,11.40
2019-05-01T15:42:43.270Z,11.50
2019-05-01T15:45:17.606Z,11.70
2019-05-01T15:47:55.374Z,11.60
2019-05-01T15:50:29.691Z,11.60
2019-05-01T15:53:03.378Z,11.60
2019-05-01T15:55:36.991Z,11.50
2019-05-01T15:58:11.347Z,11.30
2019-05-01T16:00:44.944Z,11.30
2019-05-01T16:03:18.553Z,11.50
2019-05-01T16:05:52.666Z,11.40
2019-05-01T16:08:26.775Z,11.60
2019-05-01T16:11:33.525Z,11.50
2019-05-01T16:14:07.367Z,11.40
2019-05-01T16:16:44.044Z,11.30
2019-05-01T16:19:17.770Z,11.40
2019-05-01T16:21:51.473Z,11.30
2019-05-01T16:24:31.149Z,11.30
2019-05-01T16:27:05.315Z,11.20
2019-05-01T16:29:57.199Z,11.10
2019-05-01T16:32:31.024Z,11.00
2019-05-01T16:35:05.164Z,11.00
2019-05-01T16:37:50.905Z,10.90
2019-05-01T16:40:26.263Z,11.00
2019-05-01T16:43:02.956Z,10.90
2019-05-01T16:45:36.650Z,10.90
2019-05-01T16:48:23.074Z,11.10
2019-05-01T16:50:56.738Z,11.10
2019-05-01T16:53:47.498Z,11.10
2019-05-01T16:56:21.092Z,11.00
2019-05-01T16:59:16.200Z,11.00
2019-05-01T17:01:51.574Z,11.00
2019-05-01T17:04:42.043Z,10.90
2019-05-01T17:07:17.276Z,10.80
2019-05-01T17:10:09.187Z,10.70
2019-05-01T17:12:47.663Z,10.70
2019-05-01T17:15:26.262Z,10.70
2019-05-01T17:18:09.170Z,10.70
2019-05-01T17:20:42.799Z,10.60
2019-05-01T17:23:16.490Z,10.50
2019-05-01T17:26:05.590Z,10.40
2019-05-01T17:28:39.259Z,10.50
2019-05-01T17:31:13.282Z,10.50
2019-05-01T17:34:02.115Z,10.50
2019-05-01T17:36:35.746Z,10.40
2019-05-01T17:39:09.474Z,10.40
2019-05-01T17:41:43.119Z,10.40
2019-05-01T17:44:25.401Z,10.30
2019-05-01T17:46:55.717Z,10.20
2019-05-01T17:49:48.039Z,10.20
2019-05-01T17:52:21.722Z,10.20
2019-05-01T17:55:01.342Z,10.20
2019-05-01T17:57:34.972Z,10.20
2019-05-01T18:00:30.897Z,10.20
2019-05-01T18:09:01.782Z,10.20
2019-05-01T18:11:24.270Z,10.10
2019-05-01T18:13:57.944Z,10.10
2019-05-01T18:16:44.593Z,10.10
2019-05-01T18:19:18.241Z,10.10
2019-05-01T18:21:53.680Z,10.10
2019-05-01T18:24:47.200Z,10.10
2019-05-01T18:30:32.960Z,10.00
2019-05-01T18:33:15.023Z,10.00
2019-05-01T18:35:49.176Z,10.00
2019-05-01T18:38:30.913Z,10.00
2019-05-01T18:41:09.303Z,9.90
2019-05-01T18:43:42.896Z,9.90
2019-05-01T18:46:17.203Z,9.80
2019-05-01T18:48:50.923Z,9.80
2019-05-01T18:51:24.917Z,9.80
2019-05-01T18:53:58.944Z,9.80
2019-05-01T18:59:06.107Z,9.80
2019-05-01T19:01:43.936Z,9.80
2019-05-01T19:04:18.423Z,9.80
2019-05-01T19:06:52.728Z,9.80
2019-05-01T19:09:38.768Z,9.80
2019-05-01T19:12:13.277Z,9.70
2019-05-01T19:14:47.119Z,9.70
2019-05-01T19:17:20.880Z,9.70
2019-05-01T19:19:54.790Z,9.70
2019-05-01T19:22:28.372Z,9.70
2019-05-01T19:25:15.999Z,9.60
2019-05-01T19:27:49.826Z,9.60
2019-05-01T19:30:32.488Z,9.60
2019-05-01T19:33:06.260Z,9.50
2019-05-01T19:35:40.027Z,9.50
2019-05-01T19:38:14.541Z,9.50
2019-05-01T19:40:54.338Z,9.50
2019-05-01T19:43:28.035Z,9.50
2019-05-01T19:46:19.809Z,9.60
2019-05-01T19:48:53.568Z,9.50
2019-05-01T19:51:27.299Z,9.50
2019-05-01T19:54:04.257Z,9.50
2019-05-01T19:56:38.112Z,9.50
2019-05-01T19:59:11.995Z,9.40
2019-05-01T20:02:00.710Z,9.50
2019-05-01T20:04:34.332Z,9.50
2019-05-01T20:07:10.512Z,9.40
2019-05-01T20:09:56.970Z,9.40
2019-05-01T20:12:44.735Z,9.40
2019-05-01T20:18:35.190Z,9.40
2019-05-01T20:21:08.950Z,9.40
2019-05-01T20:23:45.744Z,9.40
2019-05-01T20:26:19.438Z,9.40
2019-05-01T20:28:57.483Z,9.40
2019-05-01T20:31:32.920Z,9.40
2019-05-01T20:34:06.668Z,9.40
2019-05-01T20:36:40.430Z,9.40
2019-05-01T20:39:14.279Z,9.30
2019-05-01T20:41:48.002Z,9.40
2019-05-01T20:44:23.922Z,9.30
2019-05-01T20:46:58.448Z,9.60
2019-05-01T20:49:36.377Z,9.30
2019-05-01T20:52:12.669Z,9.30
2019-05-01T20:54:46.351Z,9.30
2019-05-01T20:57:39.442Z,9.30
2019-05-01T21:00:16.516Z,9.20
2019-05-01T21:02:49.315Z,9.20
2019-05-01T21:05:27.577Z,9.10
2019-05-01T21:08:02.800Z,9.10
2019-05-01T21:10:50.989Z,9.10
2019-05-01T21:13:25.115Z,9.10
2019-05-01T21:16:08.067Z,9.10
2019-05-01T21:18:42.758Z,9.00
2019-05-01T21:21:16.445Z,9.00
2019-05-01T21:23:56.652Z,9.00
2019-05-01T21:26:28.854Z,9.00
2019-05-01T21:29:09.607Z,9.00
2019-05-01T21:31:44.089Z,9.00
2019-05-01T21:34:17.982Z,9.00
2019-05-01T21:36:52.720Z,9.00
2019-05-01T21:39:34.675Z,9.00
2019-05-01T21:42:11.597Z,8.90
2019-05-01T21:44:44.101Z,8.90
2019-05-01T21:47:17.723Z,8.90
2019-05-01T21:49:56.278Z,8.90
2019-05-01T21:52:33.302Z,8.90
2019-05-01T21:55:07.753Z,8.90
2019-05-01T21:57:41.706Z,8.80
2019-05-01T22:00:20.070Z,8.80
2019-05-01T22:02:52.123Z,8.80
2019-05-01T22:05:27.250Z,8.80
2019-05-01T22:08:03.651Z,8.80
2019-05-01T22:10:51.762Z,8.30
2019-05-01T22:13:20.379Z,8.80
2019-05-01T22:15:55.339Z,8.80
2019-05-01T22:18:30.666Z,8.80
2019-05-01T22:21:18.429Z,8.80
2019-05-01T22:23:56.563Z,8.80
2019-05-01T22:26:35.237Z,8.80
2019-05-01T22:29:10.941Z,8.80
2019-05-01T22:31:52.889Z,8.70
2019-05-01T22:34:43.092Z,8.80
2019-05-01T22:37:17.026Z,8.70
2019-05-01T22:39:52.648Z,8.70
2019-05-01T22:42:38.569Z,8.70
2019-05-01T22:45:25.660Z,8.70
2019-05-01T22:47:59.321Z,8.70
2019-05-01T22:50:33.018Z,8.80
2019-05-01T22:53:12.731Z,8.70
2019-05-01T22:55:43.251Z,8.70
2019-05-01T22:58:38.020Z,8.70
2019-05-01T23:01:13.172Z,8.70
2019-05-01T23:03:52.052Z,8.70
2019-05-01T23:06:25.669Z,8.70
2019-05-01T23:08:59.254Z,8.70
2019-05-01T23:11:34.653Z,8.70
2019-05-01T23:14:08.398Z,8.70
2019-05-01T23:16:43.723Z,8.70
2019-05-01T23:19:29.805Z,8.70
2019-05-01T23:22:03.596Z,8.70
2019-05-01T23:24:37.280Z,8.70
2019-05-01T23:27:24.444Z,8.70
2019-05-01T23:29:58.349Z,8.70
2019-05-01T23:32:35.681Z,8.70
2019-05-01T23:35:09.444Z,8.70
2019-05-01T23:37:43.172Z,8.70
2019-05-01T23:40:17.076Z,8.70
2019-05-01T23:42:53.520Z,8.70
2019-05-01T23:45:26.089Z,8.70
2019-05-01T23:47:59.793Z,8.70
2019-05-01T23:50:46.862Z,8.70
2019-05-01T23:53:20.485Z,8.70
2019-05-01T23:56:00.238Z,8.70
2019-05-01T23:58:31.400Z,8.70
